Latest Coastal Weather Observations for Gladstone

IDQ60701

Issued at 8:02 pm EST Monday 8 February 2016 (issued every 10 minutes, with the page automatically refreshed every 10 minutes)

About coastal observations | Map of coastal stations | Coastal observations for QLD | Marine services | Other Formats
Station Details ID: 039123 Name: GLADSTONE RADAR Lat: -23.86 Lon: 151.26 Height: 74.5 m
Data from the previous 72 hours. | See also: Recent months at Gladstone
Date/Time
EST
Temp

°C
Wind Pressure Rain
since 9am
mm
Weather Cloud Vis
km
Sea
Height
m
Swell
Dir
 
Speed
knots
Gust
knots
hPa Trend Height
m
Period
s
Dir
08/08:00pm 25.9 ESE 18 27 1012.2 - 0.0 - - - - - - -
08/07:39pm 26.0 ESE 18 28 1011.9 - 0.0 - - - - - - -
08/07:30pm 25.9 ESE 17 24 1011.8 - 0.0 - - - - - - -
08/07:00pm 26.0 E 16 25 1011.6 - 0.0 - - - - - - -
08/06:30pm 26.2 E 20 29 1011.1 - 0.0 - - - - - - -
08/06:02pm 26.5 E 17 27 1010.6 - 0.0 - - - - - - -
08/06:00pm 26.6 E 16 23 1010.8 - 0.0 - - - - - - -
08/05:55pm 26.6 E 18 28 1010.8 - 0.0 - - - - - - -
08/05:30pm 26.9 E 20 28 1010.4 - 0.0 - - - - - - -
08/05:09pm 27.1 E 19 29 1010.0 - 0.0 - - - - - - -
08/05:00pm 27.3 E 21 28 1009.9 - 0.0 - - - - - - -
08/04:30pm 27.4 E 20 27 1009.6 - 0.0 - - - - - - -
08/04:22pm 27.7 E 16 27 1009.6 - 0.0 - - - - - - -
08/04:00pm 28.2 E 19 27 1009.6 - 0.0 - - - - - - -
08/03:53pm 28.2 E 16 27 1009.4 - 0.0 - - - - - - -
08/03:30pm 29.0 E 15 22 1009.7 - 0.0 - - - - - - -
08/03:00pm 30.6 E 15 22 1010.0 - 0.0 - - - - - - -
08/02:30pm 30.0 E 16 21 1010.3 - 0.0 - - - - - - -
08/02:00pm 29.0 E 17 23 1010.5 - 0.0 - - - - - - -
08/01:30pm 30.7 E 16 22 1010.8 - 0.0 - - - - - - -
08/01:00pm 30.5 E 15 23 1011.2 - 0.0 - - - - - - -
08/12:30pm 30.7 E 14 23 1011.6 - 0.0 - - - - - - -
08/12:00pm 29.7 E 12 19 1012.0 - 0.0 - - - - - - -
08/11:30am 28.4 ESE 13 21 1012.3 - 0.0 - - - - - - -
08/11:00am 28.1 ESE 13 21 1012.4 - 0.0 - - - - - - -
08/10:30am 28.3 SE 12 17 1013.0 - 0.0 - - - - - - -
08/10:00am 27.4 ESE 14 21 1012.8 - 0.0 - - - - - - -
08/09:30am 27.7 SE 11 17 1013.1 - 0.0 - - - - - - -
08/09:00am 26.4 SE 11 19 1013.1 - 0.2 - - - - - - -
08/08:30am 25.3 SE 14 23 1013.0 - 0.2 - - - - - - -
08/08:00am 24.6 SE 14 20 1013.0 - 0.2 - - - - - - -
08/07:30am 24.0 SSE 13 22 1012.7 - 0.2 - - - - - - -
08/07:00am 23.7 SSE 13 18 1012.3 - 0.2 - - - - - - -
08/06:30am 23.5 SSE 13 20 1012.3 - 0.2 - - - - - - -
08/06:00am 23.2 SSE 11 17 1011.8 - 0.2 - - - - - - -
08/05:30am 23.1 SSE 12 20 1011.9 - 0.2 - - - - - - -
08/05:00am 23.2 SE 10 17 1011.7 - 0.2 - - - - - - -
08/04:30am 23.3 SSE 12 19 1011.3 - 0.2 - - - - - - -
08/04:00am 23.3 SSE 11 18 1011.2 - 0.2 - - - - - - -
08/03:30am 23.3 SE 13 23 1011.0 - 0.2 - - - - - - -
08/03:00am 23.3 SE 12 19 1011.0 - 0.2 - - - - - - -
08/02:30am 23.2 SSE 11 18 1010.9 - 0.2 - - - - - - -
08/02:00am 23.3 SE 10 14 1011.2 - 0.2 - - - - - - -
08/01:30am 23.3 SSE 10 16 1011.5 - 0.2 - - - - - - -
08/01:00am 23.5 SSE 10 16 1011.8 - 0.2 - - - - - - -
08/12:30am 23.8 SSE 9 16 1012.1 - 0.2 - - - - - - -
08/12:00am 24.1 SE 9 14 1012.4 - 0.2 - - - - - - -
 
Date/Time
EST
Temp

°C
Wind Pressure Rain
since 9am
mm
Weather Cloud Vis
km
Sea
Height
m
Swell
Dir
 
Speed
knots
Gust
knots
hPa Trend Height
m
Period
s
Dir
07/11:30pm 24.2 SE 11 17 1012.5 - 0.2 - - - - - - -
07/11:00pm 24.6 SE 11 19 1012.5 - 0.2 - - - - - - -
07/10:30pm 25.0 SE 13 22 1012.5 - 0.2 - - - - - - -
07/10:00pm 24.9 SE 11 19 1012.4 - 0.2 - - - - - - -
07/09:30pm 25.2 SE 11 17 1012.3 - 0.2 - - - - - - -
07/09:00pm 25.5 ESE 14 21 1011.9 - 0.2 - - - - - - -
07/08:30pm 25.8 SE 12 20 1011.7 - 0.2 - - - - - - -
07/08:00pm 26.0 ESE 15 23 1011.4 - 0.2 - - - - - - -
07/07:30pm 26.2 ESE 15 22 1010.9 - 0.2 - - - - - - -
07/07:00pm 26.5 ESE 17 27 1010.5 - 0.2 - - - - - - -
07/06:57pm 26.5 ESE 16 27 1010.5 - 0.2 - - - - - - -
07/06:30pm 26.7 ESE 17 23 1010.1 - 0.2 - - - - - - -
07/06:00pm 26.8 E 17 25 1009.8 - 0.2 - - - - - - -
07/05:30pm 27.2 E 16 24 1009.4 - 0.2 - - - - - - -
07/05:00pm 27.5 E 19 25 1008.8 - 0.2 - - - - - - -
07/04:30pm 27.9 E 18 24 1008.7 - 0.2 - - - - - - -
07/04:00pm 28.4 E 17 26 1008.3 - 0.2 - - - - - - -
07/03:30pm 29.8 E 17 24 1008.4 - 0.2 - - - - - - -
07/03:29pm 29.9 E 17 27 1008.3 - 0.2 - - - - - - -
07/03:00pm 29.5 E 17 23 1008.6 - 0.2 - - - - - - -
07/02:30pm 29.4 E 15 22 1008.8 - 0.2 - - - - - - -
07/02:00pm 28.5 ESE 18 27 1008.9 - 0.2 - - - - - - -
07/01:39pm 29.2 ESE 17 27 1009.1 - 0.2 - - - - - - -
07/01:30pm 28.6 ESE 20 27 1009.1 - 0.2 - - - - - - -
07/01:15pm 28.2 ESE 19 29 1009.0 - 0.2 - - - - - - -
07/01:00pm 28.7 ESE 19 27 1009.3 - 0.2 - - - - - - -
07/12:39pm 28.9 ESE 16 26 1009.4 - 0.2 - - - - - - -
07/12:30pm 29.2 ESE 13 21 1009.6 - 0.2 - - - - - - -
07/12:00pm 28.9 ESE 10 19 1010.0 - 0.2 - - - - - - -
07/11:30am 28.3 SE 11 18 1010.3 - 0.2 - - - - - - -
07/11:00am 27.0 SE 11 18 1010.7 - 0.2 - - - - - - -
07/10:30am 25.0 ESE 16 24 1010.7 - 0.0 - - - - - - -
07/10:00am 26.1 ESE 14 24 1010.7 - 0.0 - - - - - - -
07/09:36am 26.4 SE 15 25 1010.5 - 0.0 - - - - - - -
07/09:30am 26.8 SE 11 19 1010.4 - 0.0 - - - - - - -
07/09:00am 25.6 SE 12 18 1010.6 - 1.2 - - - - - - -
07/08:30am 24.7 SE 12 18 1010.4 - 1.2 - - - - - - -
07/08:00am 24.5 SE 14 21 1009.9 - 1.2 - - - - - - -
07/07:30am 24.1 SE 11 19 1009.7 - 1.2 - - - - - - -
07/07:00am 23.8 SE 11 17 1009.6 - 1.2 - - - - - - -
07/06:30am 23.6 SE 11 16 1009.5 - 1.2 - - - - - - -
07/06:00am 23.4 SE 11 18 1008.9 - 1.2 - - - - - - -
07/05:30am 23.3 SE 11 17 1008.4 - 1.2 - - - - - - -
07/05:00am 23.2 SE 12 16 1008.2 - 1.2 - - - - - - -
07/04:30am 23.3 SE 11 17 1008.3 - 1.2 - - - - - - -
07/04:00am 23.1 SE 8 14 1008.0 - 1.2 - - - - - - -
07/03:30am 23.1 SE 9 14 1008.1 - 1.2 - - - - - - -
07/03:00am 22.9 SE 9 13 1007.9 - 1.2 - - - - - - -
07/02:30am 22.8 SE 10 14 1008.0 - 1.2 - - - - - - -
07/02:00am 22.7 SE 9 14 1008.0 - 1.2 - - - - - - -
07/01:30am 22.7 SE 10 15 1008.2 - 1.2 - - - - - - -
07/01:00am 22.7 ESE 14 22 1008.5 - 1.2 - - - - - - -
07/12:30am 22.7 SE 12 17 1008.8 - 1.2 - - - - - - -
07/12:00am 22.4 SE 11 18 1009.3 - 1.2 - - - - - - -
 
Date/Time
EST
Temp

°C
Wind Pressure Rain
since 9am
mm
Weather Cloud Vis
km
Sea
Height
m
Swell
Dir
 
Speed
knots
Gust
knots
hPa Trend Height
m
Period
s
Dir
06/11:30pm 22.5 SSE 11 16 1009.6 - 1.2 - - - - - - -
06/11:00pm 22.7 SE 13 21 1009.6 - 1.2 - - - - - - -
06/10:30pm 23.0 SE 13 21 1009.9 - 1.2 - - - - - - -
06/10:00pm 22.9 SE 13 19 1010.0 - 1.2 - - - - - - -
06/09:30pm 22.9 SE 12 19 1009.8 - 1.2 - - - - - - -
06/09:00pm 23.1 SE 12 20 1009.6 - 1.2 - - - - - - -
06/08:30pm 23.1 SE 11 16 1009.2 - 1.2 - - - - - - -
06/08:00pm 23.2 SE 12 17 1009.0 - 1.2 - - - - - - -
06/07:30pm 23.4 SE 14 22 1008.6 - 1.2 - - - - - - -
06/07:00pm 23.1 SE 13 20 1008.1 - 1.2 - - - - - - -
06/06:30pm 22.7 SE 13 21 1007.6 - 1.2 - - - - - - -
06/06:00pm 24.0 SE 13 20 1007.1 - 1.0 - - - - - - -
06/05:30pm 24.5 ESE 15 24 1006.4 - 1.0 - - - - - - -
06/05:00pm 24.7 ESE 15 21 1006.1 - 1.0 - - - - - - -
06/04:30pm 24.4 ESE 15 22 1006.0 - 1.0 - - - - - - -
06/04:19pm 24.9 ESE 17 29 1005.7 - 1.0 - - - - - - -
06/04:00pm 24.0 ESE 13 22 1005.9 - 1.0 - - - - - - -
06/03:30pm 24.7 ESE 15 23 1005.8 - 1.0 - - - - - - -
06/03:00pm 25.1 ESE 14 22 1006.2 - 1.0 - - - - - - -
06/02:30pm 25.4 ESE 14 22 1006.3 - 1.0 - - - - - - -
06/02:00pm 25.2 ESE 15 23 1006.4 - 1.0 - - - - - - -
06/01:37pm 25.2 ESE 15 25 1006.3 - 1.0 - - - - - - -
06/01:30pm 25.4 ESE 13 20 1006.4 - 1.0 - - - - - - -
06/01:18pm 25.4 E 15 25 1006.3 - 1.0 - - - - - - -
06/01:00pm 24.6 E 15 19 1006.5 - 0.6 - - - - - - -
06/12:56pm 24.4 E 16 26 1006.5 - 0.6 - - - - - - -
06/12:30pm 24.7 ESE 17 25 1006.4 - 0.6 - - - - - - -
06/12:10pm 24.7 E 17 28 1006.3 - 0.2 - - - - - - -
06/12:00pm 25.7 E 14 21 1006.5 - 0.2 - - - - - - -
06/11:49am 25.4 ESE 15 25 1006.5 - 0.2 - - - - - - -
06/11:30am 26.1 ESE 14 21 1006.4 - 0.2 - - - - - - -
06/11:01am 26.2 ESE 17 27 1006.3 - 0.2 - - - - - - -
06/11:00am 26.1 ESE 18 27 1006.4 - 0.2 - - - - - - -
06/10:50am 26.2 ESE 17 27 1006.3 - 0.2 - - - - - - -
06/10:30am 25.8 SE 13 20 1006.6 - 0.2 - - - - - - -
06/10:00am 24.6 ESE 15 24 1006.9 - 0.2 - - - - - - -
06/09:30am 24.7 SE 11 18 1007.2 - 0.0 - - - - - - -
06/09:00am 24.2 SE 13 19 1007.4 - 1.6 - - - - - - -
06/08:30am 24.3 SE 11 17 1007.5 - 1.6 - - - - - - -
06/08:00am 24.4 SE 11 17 1007.4 - 1.6 - - - - - - -
06/07:30am 24.1 SE 10 16 1007.2 - 1.6 - - - - - - -
06/07:00am 24.1 SE 10 16 1006.9 - 1.6 - - - - - - -
06/06:30am 24.1 SE 11 16 1006.5 - 1.6 - - - - - - -
06/06:00am 23.8 SE 10 15 1006.2 - 1.6 - - - - - - -
06/05:30am 23.7 SE 9 15 1005.7 - 1.6 - - - - - - -
06/05:00am 23.7 SE 10 14 1005.4 - 1.6 - - - - - - -
06/04:30am 23.7 SE 10 15 1005.2 - 1.6 - - - - - - -
06/04:00am 23.6 SE 10 15 1005.0 - 1.6 - - - - - - -
06/03:30am 23.6 SE 10 16 1004.8 - 1.6 - - - - - - -
06/03:00am 23.4 SE 9 15 1004.6 - 1.6 - - - - - - -
06/02:30am 23.3 SE 10 15 1004.8 - 1.6 - - - - - - -
06/02:00am 23.2 SE 10 16 1004.8 - 1.6 - - - - - - -
06/01:30am 23.1 SE 10 15 1005.1 - 1.6 - - - - - - -
06/01:00am 23.1 SE 10 15 1005.5 - 1.6 - - - - - - -
06/12:30am 22.9 SE 9 16 1006.1 - 1.6 - - - - - - -
06/12:00am 23.2 SSE 9 13 1006.7 - 1.6 - - - - - - -
 
Date/Time
EST
Temp

°C
Wind Pressure Rain
since 9am
mm
Weather Cloud Vis
km
Sea
Height
m
Swell
Dir
 
Speed
knots
Gust
knots
hPa Trend Height
m
Period
s
Dir
05/11:30pm 23.3 SSE 9 12 1007.1 - 1.6 - - - - - - -
05/11:00pm 23.2 SE 9 13 1007.2 - 1.6 - - - - - - -
05/10:30pm 23.2 SSE 9 15 1007.6 - 1.6 - - - - - - -
05/10:00pm 23.3 SE 7 13 1007.8 - 1.6 - - - - - - -
05/09:30pm 23.4 SE 10 14 1007.6 - 1.6 - - - - - - -
05/09:00pm 23.7 ESE 14 22 1007.4 - 1.6 - - - - - - -
05/08:30pm 23.5 SE 14 20 1007.0 - 1.6 - - - - - - -

Other Formats:

Comma delimited format used in spreadsheet applications
http://www.bom.gov.au/fwo/IDQ60701/IDQ60701.94380.axf

JavaScript Object Notation format (JSON) in row-major order
http://www.bom.gov.au/fwo/IDQ60701/IDQ60701.94380.json